createdAt,value
2022-11-25T00:01:10.237Z,100.00
2022-11-25T00:03:36.979Z,100.00
2022-11-25T00:06:14.965Z,100.00
2022-11-25T00:08:43.164Z,100.00
2022-11-25T00:11:11.140Z,100.00
2022-11-25T00:13:38.705Z,100.00
2022-11-25T00:16:07.928Z,100.00
2022-11-25T00:18:34.984Z,100.00
2022-11-25T00:21:09.640Z,100.00
2022-11-25T00:23:37.127Z,100.00
2022-11-25T00:26:10.915Z,100.00
2022-11-25T00:28:38.945Z,100.00
2022-11-25T00:31:10.815Z,100.00
2022-11-25T00:33:38.212Z,100.00
2022-11-25T00:36:06.568Z,100.00
2022-11-25T00:38:34.161Z,100.00
2022-11-25T00:41:19.260Z,100.00
2022-11-25T00:44:04.422Z,100.00
2022-11-25T00:46:31.019Z,100.00
2022-11-25T00:48:57.578Z,100.00
2022-11-25T00:51:24.910Z,100.00
2022-11-25T00:53:55.942Z,100.00
2022-11-25T00:56:25.260Z,100.00
2022-11-25T00:58:53.229Z,100.00
2022-11-25T01:01:19.956Z,100.00
2022-11-25T01:03:49.934Z,100.00
2022-11-25T01:06:16.448Z,100.00
2022-11-25T01:08:42.995Z,100.00
2022-11-25T01:11:12.411Z,100.00
2022-11-25T01:13:39.597Z,100.00
2022-11-25T01:16:07.943Z,100.00
2022-11-25T01:18:34.877Z,100.00
2022-11-25T01:21:13.273Z,100.00
2022-11-25T01:23:41.451Z,100.00
2022-11-25T01:26:14.051Z,100.00
2022-11-25T01:28:40.802Z,100.00
2022-11-25T01:31:12.444Z,100.00
2022-11-25T01:33:39.157Z,100.00
2022-11-25T01:36:11.456Z,100.00
2022-11-25T01:38:38.469Z,100.00
2022-11-25T01:41:07.459Z,100.00
2022-11-25T01:43:34.372Z,100.00
2022-11-25T01:46:27.821Z,100.00
2022-11-25T01:48:59.939Z,100.00
2022-11-25T01:51:28.584Z,100.00
2022-11-25T01:53:58.656Z,100.00
2022-11-25T01:56:28.486Z,100.00
2022-11-25T01:58:55.729Z,100.00
2022-11-25T02:01:26.197Z,100.00
2022-11-25T02:03:58.365Z,100.00
2022-11-25T02:06:28.679Z,100.00
2022-11-25T02:09:00.560Z,100.00
2022-11-25T02:11:30.739Z,100.00
2022-11-25T02:13:59.523Z,100.00
2022-11-25T02:16:26.638Z,100.00
2022-11-25T02:18:53.447Z,100.00
2022-11-25T02:21:30.925Z,100.00
2022-11-25T02:24:17.592Z,100.00
2022-11-25T02:26:45.388Z,100.00
2022-11-25T02:29:12.604Z,100.00
2022-11-25T02:31:39.136Z,100.00
2022-11-25T02:34:05.656Z,100.00
2022-11-25T02:36:34.709Z,100.00
2022-11-25T02:39:01.731Z,100.00
2022-11-25T02:41:37.263Z,100.00
2022-11-25T02:44:05.507Z,100.00
2022-11-25T02:46:32.544Z,100.00
2022-11-25T02:49:10.422Z,100.00
2022-11-25T02:51:40.139Z,100.00
2022-11-25T02:54:08.604Z,100.00
2022-11-25T02:56:36.224Z,100.00
2022-11-25T02:59:03.602Z,100.00
2022-11-25T03:01:34.967Z,100.00
2022-11-25T03:04:04.749Z,100.00
2022-11-25T03:06:31.367Z,100.00
2022-11-25T03:08:58.171Z,100.00
2022-11-25T03:11:46.745Z,100.00
2022-11-25T03:14:15.565Z,100.00
2022-11-25T03:16:43.196Z,100.00
2022-11-25T03:19:10.179Z,100.00
2022-11-25T03:21:37.753Z,100.00
2022-11-25T03:24:04.612Z,100.00
2022-11-25T03:26:31.278Z,100.00
2022-11-25T03:28:57.777Z,100.00
2022-11-25T03:31:24.429Z,100.00
2022-11-25T03:33:50.945Z,100.00
2022-11-25T03:36:17.619Z,100.00
2022-11-25T03:38:44.134Z,100.00
2022-11-25T03:41:10.894Z,100.00
2022-11-25T03:43:38.947Z,100.00
2022-11-25T03:46:05.891Z,100.00
2022-11-25T03:48:32.500Z,100.00
2022-11-25T03:50:59.249Z,100.00
2022-11-25T03:53:27.480Z,100.00
2022-11-25T03:55:54.058Z,100.00
2022-11-25T03:58:24.079Z,100.00
2022-11-25T04:00:51.342Z,100.00
2022-11-25T04:03:17.872Z,100.00
2022-11-25T04:05:44.481Z,100.00
2022-11-25T04:08:12.073Z,100.00
2022-11-25T04:10:39.310Z,100.00
2022-11-25T04:13:06.717Z,100.00
2022-11-25T04:15:37.472Z,100.00
2022-11-25T04:18:05.218Z,100.00
2022-11-25T04:20:33.011Z,100.00
2022-11-25T04:23:03.895Z,100.00
2022-11-25T04:25:35.028Z,100.00
2022-11-25T04:28:06.639Z,100.00
2022-11-25T04:30:34.251Z,100.00
2022-11-25T04:33:02.155Z,100.00
2022-11-25T04:35:28.764Z,100.00
2022-11-25T04:37:57.508Z,100.00
2022-11-25T04:40:24.881Z,100.00
2022-11-25T04:43:06.190Z,100.00
2022-11-25T04:46:06.251Z,100.00
2022-11-25T04:48:26.862Z,100.00
2022-11-25T04:50:53.421Z,100.00
2022-11-25T04:53:20.137Z,100.00
2022-11-25T04:55:47.161Z,100.00
2022-11-25T04:58:36.011Z,100.00
2022-11-25T05:01:04.862Z,100.00
2022-11-25T05:03:32.582Z,100.00
2022-11-25T05:05:59.270Z,100.00
2022-11-25T05:08:26.570Z,100.00
2022-11-25T05:10:53.196Z,100.00
2022-11-25T05:13:19.732Z,100.00
2022-11-25T05:15:46.281Z,100.00
2022-11-25T05:18:14.289Z,100.00
2022-11-25T05:20:45.065Z,100.00
2022-11-25T05:23:13.674Z,100.00
2022-11-25T05:25:42.686Z,100.00
2022-11-25T05:28:31.916Z,100.00
2022-11-25T05:30:58.573Z,100.00
2022-11-25T05:33:25.473Z,100.00
2022-11-25T05:35:57.638Z,100.00
2022-11-25T05:38:27.792Z,100.00
2022-11-25T05:41:01.544Z,100.00
2022-11-25T05:43:29.237Z,100.00
2022-11-25T05:45:56.235Z,100.00
2022-11-25T05:48:23.344Z,100.00
2022-11-25T05:50:49.854Z,100.00
2022-11-25T05:53:19.575Z,100.00
2022-11-25T05:55:57.585Z,100.00
2022-11-25T05:59:00.220Z,100.00
2022-11-25T06:01:39.429Z,100.00
2022-11-25T06:04:06.264Z,100.00
2022-11-25T06:06:33.167Z,100.00
2022-11-25T06:09:00.162Z,100.00
2022-11-25T06:11:27.124Z,100.00
2022-11-25T06:13:57.391Z,100.00
2022-11-25T06:16:24.833Z,100.00
2022-11-25T06:19:06.716Z,100.00
2022-11-25T06:21:34.152Z,100.00
2022-11-25T06:24:01.175Z,100.00
2022-11-25T06:26:29.260Z,100.00
2022-11-25T06:28:57.010Z,100.00
2022-11-25T06:31:25.636Z,100.00
2022-11-25T06:34:16.333Z,100.00
2022-11-25T06:36:43.136Z,100.00
2022-11-25T06:39:09.738Z,100.00
2022-11-25T06:41:36.369Z,100.00
2022-11-25T06:44:02.877Z,100.00
2022-11-25T06:46:29.554Z,100.00
2022-11-25T06:48:58.596Z,100.00
2022-11-25T06:51:25.130Z,100.00
2022-11-25T06:53:52.143Z,100.00
2022-11-25T06:56:21.903Z,100.00
2022-11-25T06:58:49.225Z,100.00
2022-11-25T07:01:17.700Z,100.00
2022-11-25T07:03:45.640Z,100.00
2022-11-25T07:06:13.592Z,100.00
2022-11-25T07:08:41.155Z,100.00
2022-11-25T07:11:16.058Z,100.00
2022-11-25T07:13:42.723Z,100.00
2022-11-25T07:16:11.291Z,100.00
2022-11-25T07:18:40.852Z,100.00
2022-11-25T07:21:19.380Z,100.00
2022-11-25T07:23:47.259Z,100.00
2022-11-25T07:26:17.844Z,100.00
2022-11-25T07:28:44.732Z,100.00
2022-11-25T07:31:27.799Z,100.00
2022-11-25T07:34:00.045Z,100.00
2022-11-25T07:36:27.654Z,100.00
2022-11-25T07:38:54.743Z,100.00
2022-11-25T07:41:24.732Z,100.00
2022-11-25T07:43:54.246Z,100.00
2022-11-25T07:46:27.102Z,100.00
2022-11-25T07:49:00.355Z,100.00
2022-11-25T07:51:30.508Z,100.00
2022-11-25T07:53:59.131Z,100.00
2022-11-25T07:56:25.879Z,100.00
2022-11-25T07:58:55.616Z,100.00
2022-11-25T08:01:22.181Z,100.00
2022-11-25T08:03:50.836Z,100.00
2022-11-25T08:06:23.260Z,100.00
2022-11-25T08:08:52.712Z,100.00
2022-11-25T08:11:21.510Z,100.00
2022-11-25T08:13:49.314Z,100.00
2022-11-25T08:16:18.043Z,100.00
2022-11-25T08:18:45.046Z,100.00
2022-11-25T08:21:12.882Z,100.00
2022-11-25T08:23:41.253Z,100.00
2022-11-25T08:26:10.928Z,100.00
2022-11-25T08:28:41.491Z,100.00
2022-11-25T08:31:11.618Z,100.00
2022-11-25T08:33:38.773Z,100.00
2022-11-25T08:36:06.985Z,100.00
2022-11-25T08:38:34.216Z,100.00
2022-11-25T08:41:01.048Z,100.00
2022-11-25T08:43:29.753Z,100.00
2022-11-25T08:45:56.974Z,100.00
2022-11-25T08:48:23.832Z,100.00
2022-11-25T08:50:54.415Z,100.00
2022-11-25T08:53:22.114Z,100.00
2022-11-25T08:55:49.471Z,100.00
2022-11-25T08:58:16.509Z,100.00
2022-11-25T09:00:44.451Z,100.00
2022-11-25T09:03:11.688Z,100.00
2022-11-25T09:05:43.308Z,100.00
2022-11-25T09:08:11.180Z,100.00
2022-11-25T09:10:39.267Z,100.00
2022-11-25T09:13:06.137Z,100.00
2022-11-25T09:15:32.928Z,100.00
2022-11-25T09:18:05.535Z,100.00
2022-11-25T09:20:33.730Z,100.00
2022-11-25T09:23:02.265Z,100.00
2022-11-25T09:25:29.862Z,100.00
2022-11-25T09:27:57.195Z,100.00
2022-11-25T09:30:24.736Z,100.00
2022-11-25T09:32:53.571Z,100.00
2022-11-25T09:35:20.995Z,100.00
2022-11-25T09:37:47.883Z,100.00
2022-11-25T09:40:18.606Z,100.00
2022-11-25T09:43:35.072Z,100.00
2022-11-25T09:46:39.704Z,100.00
2022-11-25T09:49:47.655Z,100.00
2022-11-25T09:52:47.858Z,100.00
2022-11-25T09:55:19.360Z,100.00
2022-11-25T09:58:16.346Z,100.00
2022-11-25T10:00:49.560Z,100.00
2022-11-25T10:03:37.946Z,100.00
2022-11-25T10:06:17.536Z,100.00
2022-11-25T10:08:48.587Z,100.00
2022-11-25T10:11:18.962Z,100.00
2022-11-25T10:14:02.452Z,100.00
2022-11-25T10:16:38.337Z,100.00
2022-11-25T10:19:39.046Z,100.00
2022-11-25T10:22:21.683Z,100.00
2022-11-25T10:24:51.134Z,97.66
2022-11-25T10:27:27.203Z,97.29
2022-11-25T10:30:05.098Z,99.08
2022-11-25T10:32:41.444Z,97.50
2022-11-25T10:35:19.316Z,96.86
2022-11-25T10:37:48.882Z,94.34
2022-11-25T10:40:16.661Z,89.37
2022-11-25T10:42:43.640Z,89.52
2022-11-25T10:45:11.791Z,84.97
2022-11-25T10:48:07.479Z,86.11
2022-11-25T10:50:48.200Z,78.72
2022-11-25T10:53:24.442Z,79.00
2022-11-25T10:56:18.098Z,77.10
2022-11-25T10:58:44.701Z,78.61
2022-11-25T11:01:16.257Z,77.05
2022-11-25T11:03:52.410Z,77.10
2022-11-25T11:06:35.170Z,75.05
2022-11-25T11:09:01.732Z,75.30
2022-11-25T11:11:29.274Z,73.39
2022-11-25T11:14:12.726Z,72.14
2022-11-25T11:16:42.980Z,75.82
2022-11-25T11:19:28.411Z,71.10
2022-11-25T11:21:56.652Z,67.50
2022-11-25T11:24:25.107Z,66.51
2022-11-25T11:27:10.117Z,66.01
2022-11-25T11:29:36.918Z,61.99
2022-11-25T11:32:05.478Z,60.05
2022-11-25T11:34:41.312Z,60.96
2022-11-25T11:37:36.412Z,60.36
2022-11-25T11:40:21.884Z,62.39
2022-11-25T11:43:02.283Z,58.99
2022-11-25T11:45:56.821Z,57.04
2022-11-25T11:48:31.888Z,55.99
2022-11-25T11:51:08.751Z,58.18
2022-11-25T11:53:45.849Z,59.63
2022-11-25T11:56:38.751Z,61.85
2022-11-25T11:59:23.985Z,74.64
2022-11-25T12:02:17.398Z,89.12
2022-11-25T12:04:52.312Z,97.99
2022-11-25T12:07:23.364Z,100.00
2022-11-25T12:09:56.901Z,100.00
2022-11-25T12:12:34.762Z,100.00
2022-11-25T12:15:10.103Z,100.00
2022-11-25T12:17:46.472Z,100.00
2022-11-25T12:20:47.952Z,100.00
2022-11-25T12:23:29.628Z,100.00
2022-11-25T12:26:02.924Z,100.00
2022-11-25T12:28:38.187Z,100.00
2022-11-25T12:31:23.163Z,100.00
2022-11-25T12:34:09.279Z,100.00
2022-11-25T12:36:47.200Z,100.00
2022-11-25T12:39:32.240Z,100.00
2022-11-25T12:42:05.879Z,100.00
2022-11-25T12:44:44.867Z,100.00
2022-11-25T12:47:11.664Z,100.00
2022-11-25T12:49:48.460Z,93.84
2022-11-25T12:52:40.025Z,100.00
2022-11-25T12:55:25.887Z,100.00
2022-11-25T12:58:22.062Z,98.92
2022-11-25T13:00:57.879Z,100.00
2022-11-25T13:03:53.307Z,100.00
2022-11-25T13:06:41.796Z,100.00
2022-11-25T13:09:14.264Z,100.00
2022-11-25T13:12:18.755Z,100.00
2022-11-25T13:15:04.511Z,100.00
2022-11-25T13:17:36.175Z,100.00
2022-11-25T13:20:27.768Z,100.00
2022-11-25T13:23:22.501Z,100.00
2022-11-25T13:25:51.715Z,100.00
2022-11-25T13:28:30.550Z,100.00
2022-11-25T13:31:13.334Z,100.00
2022-11-25T13:33:42.948Z,100.00
2022-11-25T13:36:20.956Z,100.00
2022-11-25T13:38:50.566Z,100.00
2022-11-25T13:41:20.081Z,100.00
2022-11-25T13:44:12.054Z,100.00
2022-11-25T13:46:44.771Z,100.00
2022-11-25T13:49:32.896Z,100.00
2022-11-25T13:52:41.079Z,100.00
2022-11-25T13:55:22.921Z,100.00
2022-11-25T13:58:04.786Z,100.00
2022-11-25T14:00:34.282Z,100.00
2022-11-25T14:03:19.295Z,100.00
2022-11-25T14:05:58.999Z,100.00
2022-11-25T14:08:56.488Z,100.00
2022-11-25T14:11:47.836Z,100.00
2022-11-25T14:14:45.102Z,100.00
2022-11-25T14:17:49.527Z,100.00
2022-11-25T14:20:47.934Z,100.00
2022-11-25T14:23:26.754Z,100.00
2022-11-25T14:25:55.787Z,100.00
2022-11-25T14:28:33.549Z,100.00
2022-11-25T14:31:08.358Z,100.00
2022-11-25T14:33:56.964Z,100.00
2022-11-25T14:36:33.237Z,100.00
2022-11-25T14:39:05.957Z,100.00
2022-11-25T14:41:37.996Z,100.00
2022-11-25T14:44:09.497Z,100.00
2022-11-25T14:46:51.061Z,100.00
2022-11-25T14:49:44.116Z,100.00
2022-11-25T14:52:04.304Z,100.00
2022-11-25T14:54:30.875Z,100.00
2022-11-25T14:56:58.719Z,100.00
2022-11-25T14:59:26.614Z,100.00
2022-11-25T15:01:54.701Z,100.00
2022-11-25T15:04:24.222Z,100.00
2022-11-25T15:07:02.062Z,100.00
2022-11-25T15:09:29.894Z,100.00
2022-11-25T15:12:01.228Z,100.00
2022-11-25T15:14:31.499Z,100.00
2022-11-25T15:16:58.616Z,100.00
2022-11-25T15:19:33.570Z,100.00
2022-11-25T15:24:55.777Z,100.00
2022-11-25T15:27:27.796Z,100.00
2022-11-25T15:29:56.467Z,100.00
2022-11-25T15:32:26.810Z,100.00
2022-11-25T15:34:56.162Z,100.00
2022-11-25T15:37:23.990Z,100.00
2022-11-25T15:40:11.267Z,100.00
2022-11-25T15:42:37.850Z,100.00
2022-11-25T15:45:10.528Z,100.00
2022-11-25T15:47:37.029Z,100.00
2022-11-25T15:50:24.830Z,100.00
2022-11-25T15:52:55.442Z,100.00
2022-11-25T15:55:34.128Z,100.00
2022-11-25T15:58:24.192Z,100.00
2022-11-25T16:01:05.415Z,100.00
2022-11-25T16:03:33.306Z,100.00
2022-11-25T16:06:01.412Z,100.00
2022-11-25T16:08:36.285Z,100.00
2022-11-25T16:11:16.960Z,100.00
2022-11-25T16:13:43.639Z,100.00
2022-11-25T16:16:19.403Z,100.00
2022-11-25T16:19:04.849Z,100.00
2022-11-25T16:21:38.013Z,100.00
2022-11-25T16:24:05.191Z,100.00
2022-11-25T16:26:34.705Z,100.00
2022-11-25T16:29:08.398Z,100.00
2022-11-25T16:31:34.981Z,100.00
2022-11-25T16:34:13.258Z,100.00
2022-11-25T16:36:39.738Z,100.00
2022-11-25T16:39:06.267Z,100.00
2022-11-25T16:41:33.877Z,100.00
2022-11-25T16:44:03.665Z,100.00
2022-11-25T16:46:32.644Z,100.00
2022-11-25T16:49:04.289Z,100.00
2022-11-25T16:51:30.825Z,100.00
2022-11-25T16:53:57.372Z,100.00
2022-11-25T16:56:27.903Z,100.00
2022-11-25T16:58:54.924Z,100.00
2022-11-25T17:01:25.522Z,100.00
2022-11-25T17:03:52.313Z,100.00
2022-11-25T17:06:22.530Z,100.00
2022-11-25T17:08:50.122Z,100.00
2022-11-25T17:11:29.044Z,100.00
2022-11-25T17:13:59.173Z,100.00
2022-11-25T17:16:27.995Z,100.00
2022-11-25T17:18:57.372Z,100.00
2022-11-25T17:21:28.655Z,100.00
2022-11-25T17:23:59.623Z,100.00
2022-11-25T17:26:35.500Z,100.00
2022-11-25T17:29:05.605Z,100.00
2022-11-25T17:31:33.636Z,100.00
2022-11-25T17:34:00.203Z,100.00
2022-11-25T17:36:26.863Z,100.00
2022-11-25T17:38:53.459Z,100.00
2022-11-25T17:41:24.184Z,100.00
2022-11-25T17:43:51.943Z,100.00
2022-11-25T17:46:18.577Z,100.00
2022-11-25T17:48:45.374Z,100.00
2022-11-25T17:51:13.756Z,100.00
2022-11-25T17:53:41.519Z,100.00
2022-11-25T17:56:25.119Z,100.00
2022-11-25T17:58:52.750Z,100.00
2022-11-25T18:01:19.633Z,100.00
2022-11-25T18:03:49.283Z,100.00
2022-11-25T18:06:15.780Z,100.00
2022-11-25T18:08:42.335Z,100.00
2022-11-25T18:11:14.597Z,100.00
2022-11-25T18:13:44.445Z,100.00
2022-11-25T18:16:11.576Z,100.00
2022-11-25T18:18:38.313Z,100.00
2022-11-25T18:21:04.962Z,100.00
2022-11-25T18:23:31.587Z,100.00
2022-11-25T18:26:00.868Z,100.00
2022-11-25T18:28:30.657Z,100.00
2022-11-25T18:31:02.042Z,100.00
2022-11-25T18:33:29.182Z,100.00
2022-11-25T18:35:55.680Z,100.00
2022-11-25T18:38:23.514Z,100.00
2022-11-25T18:40:53.482Z,100.00
2022-11-25T18:43:24.585Z,100.00
2022-11-25T18:45:52.581Z,100.00
2022-11-25T18:48:22.741Z,100.00
2022-11-25T18:50:51.597Z,100.00
2022-11-25T18:53:18.270Z,100.00
2022-11-25T18:55:45.129Z,100.00
2022-11-25T18:58:19.889Z,100.00
2022-11-25T19:00:48.932Z,100.00
2022-11-25T19:03:21.831Z,100.00
2022-11-25T19:05:49.166Z,100.00
2022-11-25T19:08:16.214Z,100.00
2022-11-25T19:10:44.582Z,100.00
2022-11-25T19:13:40.801Z,100.00
2022-11-25T19:16:12.787Z,100.00
2022-11-25T19:18:41.574Z,100.00
2022-11-25T19:21:14.357Z,100.00
2022-11-25T19:23:41.520Z,100.00
2022-11-25T19:26:21.784Z,100.00
2022-11-25T19:28:51.475Z,100.00
2022-11-25T19:31:19.396Z,100.00
2022-11-25T19:33:48.837Z,100.00
2022-11-25T19:36:24.130Z,100.00
2022-11-25T19:38:50.893Z,100.00
2022-11-25T19:41:17.738Z,100.00
2022-11-25T19:43:44.272Z,100.00
2022-11-25T19:46:46.275Z,100.00
2022-11-25T19:49:19.815Z,100.00
2022-11-25T19:51:47.476Z,100.00
2022-11-25T19:54:17.295Z,100.00
2022-11-25T19:56:45.381Z,100.00
2022-11-25T19:59:11.960Z,100.00
2022-11-25T20:01:45.263Z,100.00
2022-11-25T20:04:20.756Z,100.00
2022-11-25T20:06:48.880Z,100.00
2022-11-25T20:09:15.476Z,100.00
2022-11-25T20:11:42.556Z,100.00
2022-11-25T20:14:09.070Z,100.00
2022-11-25T20:16:40.015Z,100.00
2022-11-25T20:19:07.665Z,100.00
2022-11-25T20:21:39.781Z,100.00
2022-11-25T20:24:13.026Z,100.00
2022-11-25T20:26:40.209Z,100.00
2022-11-25T20:29:30.513Z,100.00
2022-11-25T20:31:58.476Z,100.00
2022-11-25T20:34:25.090Z,100.00
2022-11-25T20:36:51.562Z,100.00
2022-11-25T20:39:19.466Z,100.00
2022-11-25T20:41:51.788Z,100.00
2022-11-25T20:44:19.880Z,100.00
2022-11-25T20:46:46.495Z,100.00
2022-11-25T20:49:22.374Z,100.00
2022-11-25T20:51:49.244Z,100.00
2022-11-25T20:54:16.828Z,100.00
2022-11-25T20:56:43.345Z,100.00
2022-11-25T20:59:23.776Z,100.00
2022-11-25T21:01:52.578Z,100.00
2022-11-25T21:04:19.244Z,100.00
2022-11-25T21:06:46.058Z,100.00
2022-11-25T21:09:19.533Z,100.00
2022-11-25T21:11:47.822Z,100.00
2022-11-25T21:14:18.174Z,100.00
2022-11-25T21:16:45.473Z,100.00
2022-11-25T21:19:14.260Z,100.00
2022-11-25T21:21:44.225Z,100.00
2022-11-25T21:24:28.362Z,100.00
2022-11-25T21:26:56.821Z,100.00
2022-11-25T21:29:23.718Z,100.00
2022-11-25T21:31:50.295Z,100.00
2022-11-25T21:34:16.974Z,100.00
2022-11-25T21:36:45.923Z,100.00
2022-11-25T21:39:25.626Z,100.00
2022-11-25T21:41:52.954Z,100.00
2022-11-25T21:44:27.131Z,100.00
2022-11-25T21:46:54.102Z,100.00
2022-11-25T21:49:21.086Z,100.00
2022-11-25T21:51:47.676Z,100.00
2022-11-25T21:54:14.216Z,100.00
2022-11-25T21:56:40.801Z,100.00
2022-11-25T21:59:14.263Z,100.00
2022-11-25T22:01:40.701Z,100.00
2022-11-25T22:04:13.359Z,100.00
2022-11-25T22:06:39.775Z,100.00
2022-11-25T22:09:06.308Z,100.00
2022-11-25T22:11:36.528Z,100.00
2022-11-25T22:14:06.405Z,100.00
2022-11-25T22:16:35.094Z,100.00
2022-11-25T22:19:01.816Z,100.00
2022-11-25T22:21:28.334Z,100.00
2022-11-25T22:23:55.108Z,100.00
2022-11-25T22:26:33.171Z,100.00
2022-11-25T22:29:02.253Z,100.00
2022-11-25T22:31:28.997Z,100.00
2022-11-25T22:33:55.728Z,100.00
2022-11-25T22:36:28.153Z,100.00
2022-11-25T22:38:54.596Z,100.00
2022-11-25T22:41:21.208Z,100.00
2022-11-25T22:43:52.039Z,100.00
2022-11-25T22:46:18.879Z,100.00
2022-11-25T22:48:46.069Z,100.00
2022-11-25T22:51:20.749Z,100.00
2022-11-25T22:53:47.220Z,100.00
2022-11-25T22:56:17.483Z,100.00
2022-11-25T22:58:44.288Z,100.00
2022-11-25T23:01:14.454Z,100.00
2022-11-25T23:03:43.904Z,100.00
2022-11-25T23:06:12.698Z,100.00
2022-11-25T23:08:40.068Z,100.00
2022-11-25T23:11:06.775Z,100.00
2022-11-25T23:13:35.275Z,100.00
2022-11-25T23:16:04.368Z,100.00
2022-11-25T23:18:38.967Z,100.00
2022-11-25T23:21:12.825Z,100.00
2022-11-25T23:23:39.339Z,100.00
2022-11-25T23:26:06.378Z,100.00
2022-11-25T23:28:32.939Z,100.00
2022-11-25T23:31:01.244Z,100.00
2022-11-25T23:33:40.716Z,100.00
2022-11-25T23:36:36.435Z,100.00
2022-11-25T23:39:03.704Z,100.00
2022-11-25T23:41:33.486Z,100.00
2022-11-25T23:44:23.915Z,100.00
2022-11-25T23:46:52.867Z,100.00
2022-11-25T23:49:29.863Z,100.00
2022-11-25T23:52:04.592Z,100.00
2022-11-25T23:54:43.964Z,100.00
2022-11-25T23:57:26.173Z,100.00
2022-11-25T23:59:52.806Z,100.00
